sensor_id;sensor_type;location;lat;lon;timestamp;P1;durP1;ratioP1;P2;durP2;ratioP2
17494;SDS011;8864;51.970;4.614;2023-06-05T00:02:11;3.05;;;1.35;;
17494;SDS011;8864;51.970;4.614;2023-06-05T00:04:38;3.33;;;1.25;;
17494;SDS011;8864;51.970;4.614;2023-06-05T00:07:05;2.05;;;0.98;;
17494;SDS011;8864;51.970;4.614;2023-06-05T00:09:32;4.55;;;1.40;;
17494;SDS011;8864;51.970;4.614;2023-06-05T00:11:59;4.07;;;1.35;;
17494;SDS011;8864;51.970;4.614;2023-06-05T00:14:28;2.67;;;1.02;;
17494;SDS011;8864;51.970;4.614;2023-06-05T00:16:55;2.13;;;0.95;;
17494;SDS011;8864;51.970;4.614;2023-06-05T00:19:22;2.78;;;1.38;;
17494;SDS011;8864;51.970;4.614;2023-06-05T00:21:49;3.60;;;1.27;;
17494;SDS011;8864;51.970;4.614;2023-06-05T00:24:17;1.85;;;1.02;;
17494;SDS011;8864;51.970;4.614;2023-06-05T00:26:44;3.50;;;1.30;;
17494;SDS011;8864;51.970;4.614;2023-06-05T00:29:13;2.95;;;1.17;;
17494;SDS011;8864;51.970;4.614;2023-06-05T00:31:43;2.45;;;1.08;;
17494;SDS011;8864;51.970;4.614;2023-06-05T00:34:11;2.97;;;1.25;;
17494;SDS011;8864;51.970;4.614;2023-06-05T00:36:39;2.28;;;0.98;;
17494;SDS011;8864;51.970;4.614;2023-06-05T00:39:06;2.75;;;1.17;;
17494;SDS011;8864;51.970;4.614;2023-06-05T00:41:34;1.80;;;1.20;;
17494;SDS011;8864;51.970;4.614;2023-06-05T00:44:02;1.45;;;0.93;;
17494;SDS011;8864;51.970;4.614;2023-06-05T00:46:29;1.90;;;1.13;;
17494;SDS011;8864;51.970;4.614;2023-06-05T00:48:57;2.83;;;1.30;;
17494;SDS011;8864;51.970;4.614;2023-06-05T00:51:24;3.00;;;1.40;;
17494;SDS011;8864;51.970;4.614;2023-06-05T00:53:51;2.75;;;1.17;;
17494;SDS011;8864;51.970;4.614;2023-06-05T00:56:18;2.17;;;1.00;;
17494;SDS011;8864;51.970;4.614;2023-06-05T00:58:46;1.80;;;1.10;;
17494;SDS011;8864;51.970;4.614;2023-06-05T01:01:13;1.83;;;1.20;;
17494;SDS011;8864;51.970;4.614;2023-06-05T01:03:42;1.73;;;1.20;;
17494;SDS011;8864;51.970;4.614;2023-06-05T01:06:11;2.83;;;1.10;;
17494;SDS011;8864;51.970;4.614;2023-06-05T01:08:38;2.33;;;1.00;;
17494;SDS011;8864;51.970;4.614;2023-06-05T01:11:09;4.07;;;1.65;;
17494;SDS011;8864;51.970;4.614;2023-06-05T01:13:42;1.27;;;1.00;;
17494;SDS011;8864;51.970;4.614;2023-06-05T01:16:15;2.88;;;1.20;;
17494;SDS011;8864;51.970;4.614;2023-06-05T01:18:43;3.50;;;1.00;;
17494;SDS011;8864;51.970;4.614;2023-06-05T01:21:12;1.65;;;1.00;;
17494;SDS011;8864;51.970;4.614;2023-06-05T01:23:42;2.92;;;1.25;;
17494;SDS011;8864;51.970;4.614;2023-06-05T01:26:10;2.70;;;1.17;;
17494;SDS011;8864;51.970;4.614;2023-06-05T01:28:44;2.83;;;1.00;;
17494;SDS011;8864;51.970;4.614;2023-06-05T01:31:16;2.38;;;1.33;;
17494;SDS011;8864;51.970;4.614;2023-06-05T01:33:47;3.05;;;1.15;;
17494;SDS011;8864;51.970;4.614;2023-06-05T01:36:21;2.33;;;1.10;;
17494;SDS011;8864;51.970;4.614;2023-06-05T01:38:50;1.90;;;1.10;;
17494;SDS011;8864;51.970;4.614;2023-06-05T01:41:19;2.05;;;1.27;;
17494;SDS011;8864;51.970;4.614;2023-06-05T01:43:46;1.80;;;1.20;;
17494;SDS011;8864;51.970;4.614;2023-06-05T01:46:15;5.05;;;1.40;;
17494;SDS011;8864;51.970;4.614;2023-06-05T01:48:43;2.95;;;1.10;;
17494;SDS011;8864;51.970;4.614;2023-06-05T01:51:11;2.08;;;1.00;;
17494;SDS011;8864;51.970;4.614;2023-06-05T01:53:38;2.22;;;1.00;;
17494;SDS011;8864;51.970;4.614;2023-06-05T01:56:06;1.20;;;0.80;;
17494;SDS011;8864;51.970;4.614;2023-06-05T01:58:34;2.10;;;1.05;;
17494;SDS011;8864;51.970;4.614;2023-06-05T02:01:02;2.28;;;1.33;;
17494;SDS011;8864;51.970;4.614;2023-06-05T02:03:30;5.75;;;1.30;;
17494;SDS011;8864;51.970;4.614;2023-06-05T02:05:57;3.22;;;1.20;;
17494;SDS011;8864;51.970;4.614;2023-06-05T02:08:24;2.92;;;1.40;;
17494;SDS011;8864;51.970;4.614;2023-06-05T02:10:53;3.30;;;1.10;;
17494;SDS011;8864;51.970;4.614;2023-06-05T02:13:21;2.70;;;1.20;;
17494;SDS011;8864;51.970;4.614;2023-06-05T02:15:50;3.63;;;1.13;;
17494;SDS011;8864;51.970;4.614;2023-06-05T02:18:21;1.75;;;1.20;;
17494;SDS011;8864;51.970;4.614;2023-06-05T02:20:52;2.78;;;1.10;;
17494;SDS011;8864;51.970;4.614;2023-06-05T02:23:21;2.58;;;1.30;;
17494;SDS011;8864;51.970;4.614;2023-06-05T02:25:48;2.80;;;1.20;;
17494;SDS011;8864;51.970;4.614;2023-06-05T02:28:15;4.40;;;1.20;;
17494;SDS011;8864;51.970;4.614;2023-06-05T02:30:43;2.88;;;1.35;;
17494;SDS011;8864;51.970;4.614;2023-06-05T02:33:10;1.35;;;0.95;;
17494;SDS011;8864;51.970;4.614;2023-06-05T02:35:37;1.73;;;1.10;;
17494;SDS011;8864;51.970;4.614;2023-06-05T02:38:05;1.40;;;1.10;;
17494;SDS011;8864;51.970;4.614;2023-06-05T02:40:35;2.53;;;1.33;;
17494;SDS011;8864;51.970;4.614;2023-06-05T02:43:02;3.15;;;1.25;;
17494;SDS011;8864;51.970;4.614;2023-06-05T02:45:32;2.10;;;1.30;;
17494;SDS011;8864;51.970;4.614;2023-06-05T02:48:01;1.27;;;1.00;;
17494;SDS011;8864;51.970;4.614;2023-06-05T02:50:28;2.42;;;1.30;;
17494;SDS011;8864;51.970;4.614;2023-06-05T02:52:54;2.17;;;1.10;;
17494;SDS011;8864;51.970;4.614;2023-06-05T02:55:21;2.38;;;1.13;;
17494;SDS011;8864;51.970;4.614;2023-06-05T02:57:48;2.15;;;1.00;;
17494;SDS011;8864;51.970;4.614;2023-06-05T03:00:16;1.95;;;1.20;;
17494;SDS011;8864;51.970;4.614;2023-06-05T03:02:43;1.25;;;1.08;;
17494;SDS011;8864;51.970;4.614;2023-06-05T03:05:15;2.08;;;1.33;;
17494;SDS011;8864;51.970;4.614;2023-06-05T03:07:49;3.05;;;1.25;;
17494;SDS011;8864;51.970;4.614;2023-06-05T03:10:19;2.92;;;1.30;;
17494;SDS011;8864;51.970;4.614;2023-06-05T03:12:46;3.33;;;1.30;;
17494;SDS011;8864;51.970;4.614;2023-06-05T03:15:13;4.03;;;1.08;;
17494;SDS011;8864;51.970;4.614;2023-06-05T03:17:41;5.20;;;1.27;;
17494;SDS011;8864;51.970;4.614;2023-06-05T03:20:10;2.90;;;1.20;;
17494;SDS011;8864;51.970;4.614;2023-06-05T03:22:39;2.33;;;0.90;;
17494;SDS011;8864;51.970;4.614;2023-06-05T03:25:06;2.00;;;0.93;;
17494;SDS011;8864;51.970;4.614;2023-06-05T03:27:33;2.45;;;1.30;;
17494;SDS011;8864;51.970;4.614;2023-06-05T03:30:00;2.75;;;1.42;;
17494;SDS011;8864;51.970;4.614;2023-06-05T03:32:27;3.28;;;1.30;;
17494;SDS011;8864;51.970;4.614;2023-06-05T03:34:54;6.15;;;1.50;;
17494;SDS011;8864;51.970;4.614;2023-06-05T03:37:21;3.72;;;1.10;;
17494;SDS011;8864;51.970;4.614;2023-06-05T03:39:49;1.35;;;1.00;;
17494;SDS011;8864;51.970;4.614;2023-06-05T03:42:16;3.63;;;1.33;;
17494;SDS011;8864;51.970;4.614;2023-06-05T03:44:43;1.77;;;1.10;;
17494;SDS011;8864;51.970;4.614;2023-06-05T03:47:10;2.10;;;1.20;;
17494;SDS011;8864;51.970;4.614;2023-06-05T03:49:39;2.33;;;1.08;;
17494;SDS011;8864;51.970;4.614;2023-06-05T03:52:11;3.60;;;1.17;;
17494;SDS011;8864;51.970;4.614;2023-06-05T03:54:39;1.58;;;1.20;;
17494;SDS011;8864;51.970;4.614;2023-06-05T03:57:11;3.92;;;1.33;;
17494;SDS011;8864;51.970;4.614;2023-06-05T03:59:39;2.03;;;1.20;;
17494;SDS011;8864;51.970;4.614;2023-06-05T04:02:06;3.47;;;1.27;;
17494;SDS011;8864;51.970;4.614;2023-06-05T04:04:33;2.53;;;1.17;;
17494;SDS011;8864;51.970;4.614;2023-06-05T04:07:00;3.78;;;1.65;;
17494;SDS011;8864;51.970;4.614;2023-06-05T04:09:27;2.08;;;1.30;;
17494;SDS011;8864;51.970;4.614;2023-06-05T04:11:54;5.95;;;1.92;;
17494;SDS011;8864;51.970;4.614;2023-06-05T04:14:22;3.13;;;1.70;;
17494;SDS011;8864;51.970;4.614;2023-06-05T04:16:49;4.63;;;2.00;;
17494;SDS011;8864;51.970;4.614;2023-06-05T04:19:16;3.45;;;1.63;;
17494;SDS011;8864;51.970;4.614;2023-06-05T04:21:43;4.45;;;1.80;;
17494;SDS011;8864;51.970;4.614;2023-06-05T04:24:10;6.15;;;1.60;;
17494;SDS011;8864;51.970;4.614;2023-06-05T04:26:37;3.72;;;1.80;;
17494;SDS011;8864;51.970;4.614;2023-06-05T04:29:06;4.85;;;2.30;;
17494;SDS011;8864;51.970;4.614;2023-06-05T04:31:39;4.63;;;2.08;;
17494;SDS011;8864;51.970;4.614;2023-06-05T04:34:07;2.65;;;1.65;;
17494;SDS011;8864;51.970;4.614;2023-06-05T04:36:34;3.53;;;1.70;;
17494;SDS011;8864;51.970;4.614;2023-06-05T04:39:02;4.13;;;1.77;;
17494;SDS011;8864;51.970;4.614;2023-06-05T04:41:32;5.30;;;1.75;;
17494;SDS011;8864;51.970;4.614;2023-06-05T04:43:59;5.30;;;1.80;;
17494;SDS011;8864;51.970;4.614;2023-06-05T04:46:26;5.72;;;2.10;;
17494;SDS011;8864;51.970;4.614;2023-06-05T04:48:55;3.90;;;1.55;;
17494;SDS011;8864;51.970;4.614;2023-06-05T04:51:22;2.53;;;1.60;;
17494;SDS011;8864;51.970;4.614;2023-06-05T04:53:49;4.90;;;1.73;;
17494;SDS011;8864;51.970;4.614;2023-06-05T04:56:18;4.82;;;1.88;;
17494;SDS011;8864;51.970;4.614;2023-06-05T04:58:46;7.35;;;1.83;;
17494;SDS011;8864;51.970;4.614;2023-06-05T05:01:15;6.60;;;1.67;;
17494;SDS011;8864;51.970;4.614;2023-06-05T05:03:43;5.25;;;1.83;;
17494;SDS011;8864;51.970;4.614;2023-06-05T05:06:14;16.17;;;1.83;;
17494;SDS011;8864;51.970;4.614;2023-06-05T05:08:41;5.93;;;1.90;;
17494;SDS011;8864;51.970;4.614;2023-06-05T05:11:10;5.80;;;2.00;;
17494;SDS011;8864;51.970;4.614;2023-06-05T05:13:38;2.63;;;1.55;;
17494;SDS011;8864;51.970;4.614;2023-06-05T05:16:05;4.28;;;1.75;;
17494;SDS011;8864;51.970;4.614;2023-06-05T05:18:33;5.07;;;1.70;;
17494;SDS011;8864;51.970;4.614;2023-06-05T05:21:02;5.13;;;1.70;;
17494;SDS011;8864;51.970;4.614;2023-06-05T05:23:31;2.88;;;1.50;;
17494;SDS011;8864;51.970;4.614;2023-06-05T05:25:58;4.55;;;1.70;;
17494;SDS011;8864;51.970;4.614;2023-06-05T05:28:25;4.97;;;1.70;;
17494;SDS011;8864;51.970;4.614;2023-06-05T05:30:52;3.85;;;1.60;;
17494;SDS011;8864;51.970;4.614;2023-06-05T05:33:21;4.45;;;1.40;;
17494;SDS011;8864;51.970;4.614;2023-06-05T05:35:48;5.65;;;1.48;;
17494;SDS011;8864;51.970;4.614;2023-06-05T05:38:15;3.10;;;1.70;;
17494;SDS011;8864;51.970;4.614;2023-06-05T05:40:43;4.50;;;1.50;;
17494;SDS011;8864;51.970;4.614;2023-06-05T05:43:10;4.47;;;1.73;;
17494;SDS011;8864;51.970;4.614;2023-06-05T05:45:37;6.20;;;1.85;;
17494;SDS011;8864;51.970;4.614;2023-06-05T05:48:05;5.60;;;1.88;;
17494;SDS011;8864;51.970;4.614;2023-06-05T05:50:33;3.85;;;1.70;;
17494;SDS011;8864;51.970;4.614;2023-06-05T05:53:00;2.45;;;1.60;;
17494;SDS011;8864;51.970;4.614;2023-06-05T05:55:28;3.22;;;1.70;;
17494;SDS011;8864;51.970;4.614;2023-06-05T05:57:56;4.28;;;1.70;;
17494;SDS011;8864;51.970;4.614;2023-06-05T06:00:23;3.90;;;1.83;;
17494;SDS011;8864;51.970;4.614;2023-06-05T06:02:51;3.17;;;2.00;;
17494;SDS011;8864;51.970;4.614;2023-06-05T06:05:18;5.55;;;1.95;;
17494;SDS011;8864;51.970;4.614;2023-06-05T06:07:46;5.80;;;2.25;;
17494;SDS011;8864;51.970;4.614;2023-06-05T06:10:13;4.75;;;2.13;;
17494;SDS011;8864;51.970;4.614;2023-06-05T06:12:40;7.85;;;2.03;;
17494;SDS011;8864;51.970;4.614;2023-06-05T06:15:09;6.18;;;2.40;;
17494;SDS011;8864;51.970;4.614;2023-06-05T06:17:36;9.25;;;2.88;;
17494;SDS011;8864;51.970;4.614;2023-06-05T06:20:04;4.70;;;2.17;;
17494;SDS011;8864;51.970;4.614;2023-06-05T06:22:34;5.85;;;2.33;;
17494;SDS011;8864;51.970;4.614;2023-06-05T06:25:01;4.25;;;2.10;;
17494;SDS011;8864;51.970;4.614;2023-06-05T06:27:28;4.68;;;2.00;;
17494;SDS011;8864;51.970;4.614;2023-06-05T06:29:55;4.85;;;2.20;;
17494;SDS011;8864;51.970;4.614;2023-06-05T06:32:25;7.55;;;2.20;;
17494;SDS011;8864;51.970;4.614;2023-06-05T06:34:52;5.97;;;1.95;;
17494;SDS011;8864;51.970;4.614;2023-06-05T06:37:20;5.22;;;1.80;;
17494;SDS011;8864;51.970;4.614;2023-06-05T06:39:47;5.13;;;2.40;;
17494;SDS011;8864;51.970;4.614;2023-06-05T06:42:15;5.60;;;2.00;;
17494;SDS011;8864;51.970;4.614;2023-06-05T06:44:42;3.67;;;2.08;;
17494;SDS011;8864;51.970;4.614;2023-06-05T06:47:09;5.13;;;2.20;;
17494;SDS011;8864;51.970;4.614;2023-06-05T06:49:38;4.18;;;2.22;;
17494;SDS011;8864;51.970;4.614;2023-06-05T06:52:05;3.40;;;1.88;;
17494;SDS011;8864;51.970;4.614;2023-06-05T06:54:32;3.90;;;2.25;;
17494;SDS011;8864;51.970;4.614;2023-06-05T06:56:59;5.60;;;1.90;;
17494;SDS011;8864;51.970;4.614;2023-06-05T06:59:26;2.95;;;2.10;;
17494;SDS011;8864;51.970;4.614;2023-06-05T07:02:09;6.38;;;2.30;;
17494;SDS011;8864;51.970;4.614;2023-06-05T07:04:39;8.65;;;2.47;;
17494;SDS011;8864;51.970;4.614;2023-06-05T07:07:08;2.67;;;2.08;;
17494;SDS011;8864;51.970;4.614;2023-06-05T07:09:37;5.35;;;1.88;;
17494;SDS011;8864;51.970;4.614;2023-06-05T07:12:04;5.38;;;2.17;;
17494;SDS011;8864;51.970;4.614;2023-06-05T07:14:33;3.78;;;1.85;;
17494;SDS011;8864;51.970;4.614;2023-06-05T07:17:00;5.43;;;2.30;;
17494;SDS011;8864;51.970;4.614;2023-06-05T07:19:28;3.90;;;1.98;;
17494;SDS011;8864;51.970;4.614;2023-06-05T07:21:57;3.40;;;1.80;;
17494;SDS011;8864;51.970;4.614;2023-06-05T07:24:25;7.32;;;2.65;;
17494;SDS011;8864;51.970;4.614;2023-06-05T07:26:55;5.85;;;1.80;;
17494;SDS011;8864;51.970;4.614;2023-06-05T07:29:23;3.33;;;1.60;;
17494;SDS011;8864;51.970;4.614;2023-06-05T07:31:50;3.92;;;1.75;;
17494;SDS011;8864;51.970;4.614;2023-06-05T07:34:18;3.65;;;1.80;;
17494;SDS011;8864;51.970;4.614;2023-06-05T07:36:46;6.85;;;1.80;;
17494;SDS011;8864;51.970;4.614;2023-06-05T07:39:15;5.75;;;1.55;;
17494;SDS011;8864;51.970;4.614;2023-06-05T07:41:43;9.00;;;2.10;;
17494;SDS011;8864;51.970;4.614;2023-06-05T07:44:10;3.88;;;1.60;;
17494;SDS011;8864;51.970;4.614;2023-06-05T07:46:39;5.13;;;1.70;;
17494;SDS011;8864;51.970;4.614;2023-06-05T07:49:06;2.45;;;1.60;;
17494;SDS011;8864;51.970;4.614;2023-06-05T07:51:34;6.22;;;1.80;;
17494;SDS011;8864;51.970;4.614;2023-06-05T07:54:02;5.13;;;2.10;;
17494;SDS011;8864;51.970;4.614;2023-06-05T07:56:30;6.93;;;1.98;;
17494;SDS011;8864;51.970;4.614;2023-06-05T07:58:58;3.85;;;1.70;;
17494;SDS011;8864;51.970;4.614;2023-06-05T08:01:25;2.80;;;1.38;;
17494;SDS011;8864;51.970;4.614;2023-06-05T08:03:52;3.55;;;1.50;;
17494;SDS011;8864;51.970;4.614;2023-06-05T08:06:20;2.42;;;1.45;;
17494;SDS011;8864;51.970;4.614;2023-06-05T08:08:49;1.90;;;1.45;;
17494;SDS011;8864;51.970;4.614;2023-06-05T08:11:16;4.78;;;1.83;;
17494;SDS011;8864;51.970;4.614;2023-06-05T08:13:44;2.63;;;1.45;;
17494;SDS011;8864;51.970;4.614;2023-06-05T08:16:11;4.90;;;1.83;;
17494;SDS011;8864;51.970;4.614;2023-06-05T08:18:40;7.82;;;2.10;;
17494;SDS011;8864;51.970;4.614;2023-06-05T08:21:07;3.63;;;2.00;;
17494;SDS011;8864;51.970;4.614;2023-06-05T08:23:34;3.83;;;1.75;;
17494;SDS011;8864;51.970;4.614;2023-06-05T08:26:01;4.63;;;1.80;;
17494;SDS011;8864;51.970;4.614;2023-06-05T08:28:35;7.28;;;1.70;;
17494;SDS011;8864;51.970;4.614;2023-06-05T08:31:03;6.22;;;1.90;;
17494;SDS011;8864;51.970;4.614;2023-06-05T08:33:31;4.25;;;1.48;;
17494;SDS011;8864;51.970;4.614;2023-06-05T08:35:58;2.83;;;1.75;;
17494;SDS011;8864;51.970;4.614;2023-06-05T08:38:25;5.40;;;1.80;;
17494;SDS011;8864;51.970;4.614;2023-06-05T08:40:54;7.30;;;1.70;;
17494;SDS011;8864;51.970;4.614;2023-06-05T08:43:23;2.97;;;1.70;;
17494;SDS011;8864;51.970;4.614;2023-06-05T08:45:51;3.05;;;1.63;;
17494;SDS011;8864;51.970;4.614;2023-06-05T08:48:20;6.65;;;1.60;;
17494;SDS011;8864;51.970;4.614;2023-06-05T08:50:48;5.53;;;1.40;;
17494;SDS011;8864;51.970;4.614;2023-06-05T08:53:16;2.13;;;1.50;;
17494;SDS011;8864;51.970;4.614;2023-06-05T08:55:43;4.35;;;1.50;;
17494;SDS011;8864;51.970;4.614;2023-06-05T08:58:12;4.78;;;1.67;;
17494;SDS011;8864;51.970;4.614;2023-06-05T09:00:40;4.97;;;1.80;;
17494;SDS011;8864;51.970;4.614;2023-06-05T09:03:10;6.82;;;1.77;;
17494;SDS011;8864;51.970;4.614;2023-06-05T09:05:41;5.35;;;1.60;;
17494;SDS011;8864;51.970;4.614;2023-06-05T09:08:08;23.90;;;1.80;;
17494;SDS011;8864;51.970;4.614;2023-06-05T09:10:35;6.03;;;1.65;;
17494;SDS011;8864;51.970;4.614;2023-06-05T09:13:03;6.00;;;1.60;;
17494;SDS011;8864;51.970;4.614;2023-06-05T09:15:30;4.57;;;1.60;;
17494;SDS011;8864;51.970;4.614;2023-06-05T09:18:05;3.63;;;1.67;;
17494;SDS011;8864;51.970;4.614;2023-06-05T09:20:34;3.28;;;1.60;;
17494;SDS011;8864;51.970;4.614;2023-06-05T09:23:04;6.15;;;1.42;;
17494;SDS011;8864;51.970;4.614;2023-06-05T09:25:49;3.10;;;1.60;;
17494;SDS011;8864;51.970;4.614;2023-06-05T09:28:16;7.30;;;1.70;;
17494;SDS011;8864;51.970;4.614;2023-06-05T09:30:53;20.63;;;1.60;;
17494;SDS011;8864;51.970;4.614;2023-06-05T09:33:24;10.30;;;1.52;;
17494;SDS011;8864;51.970;4.614;2023-06-05T09:36:06;8.07;;;1.80;;
17494;SDS011;8864;51.970;4.614;2023-06-05T09:38:36;5.45;;;1.40;;
17494;SDS011;8864;51.970;4.614;2023-06-05T09:41:04;7.85;;;1.95;;
17494;SDS011;8864;51.970;4.614;2023-06-05T09:43:32;6.10;;;1.50;;
17494;SDS011;8864;51.970;4.614;2023-06-05T09:46:02;5.70;;;1.60;;
17494;SDS011;8864;51.970;4.614;2023-06-05T09:48:32;7.68;;;1.48;;
17494;SDS011;8864;51.970;4.614;2023-06-05T09:51:10;4.25;;;1.58;;
17494;SDS011;8864;51.970;4.614;2023-06-05T09:53:41;5.03;;;1.60;;
17494;SDS011;8864;51.970;4.614;2023-06-05T09:56:11;5.70;;;1.92;;
17494;SDS011;8864;51.970;4.614;2023-06-05T09:58:40;5.63;;;1.67;;
17494;SDS011;8864;51.970;4.614;2023-06-05T10:01:11;5.00;;;1.60;;
17494;SDS011;8864;51.970;4.614;2023-06-05T10:03:42;5.28;;;1.50;;
17494;SDS011;8864;51.970;4.614;2023-06-05T10:06:10;2.80;;;1.40;;
17494;SDS011;8864;51.970;4.614;2023-06-05T10:08:38;3.53;;;1.58;;
17494;SDS011;8864;51.970;4.614;2023-06-05T10:11:07;5.05;;;1.60;;
17494;SDS011;8864;51.970;4.614;2023-06-05T10:13:36;2.35;;;1.30;;
17494;SDS011;8864;51.970;4.614;2023-06-05T10:16:03;3.25;;;1.45;;
17494;SDS011;8864;51.970;4.614;2023-06-05T10:18:31;4.63;;;1.20;;
17494;SDS011;8864;51.970;4.614;2023-06-05T10:20:58;3.38;;;1.80;;
17494;SDS011;8864;51.970;4.614;2023-06-05T10:23:25;6.95;;;1.55;;
17494;SDS011;8864;51.970;4.614;2023-06-05T10:25:55;1.63;;;1.33;;
17494;SDS011;8864;51.970;4.614;2023-06-05T10:28:35;2.67;;;1.50;;
17494;SDS011;8864;51.970;4.614;2023-06-05T10:31:19;2.60;;;1.40;;
17494;SDS011;8864;51.970;4.614;2023-06-05T10:34:02;3.60;;;1.45;;
17494;SDS011;8864;51.970;4.614;2023-06-05T10:36:40;2.25;;;1.35;;
17494;SDS011;8864;51.970;4.614;2023-06-05T10:39:31;4.28;;;1.70;;
17494;SDS011;8864;51.970;4.614;2023-06-05T10:42:00;2.03;;;1.33;;
17494;SDS011;8864;51.970;4.614;2023-06-05T10:44:40;5.70;;;1.58;;
17494;SDS011;8864;51.970;4.614;2023-06-05T10:50:27;3.47;;;1.75;;
17494;SDS011;8864;51.970;4.614;2023-06-05T10:52:56;2.60;;;1.60;;
17494;SDS011;8864;51.970;4.614;2023-06-05T10:55:26;2.42;;;1.45;;
17494;SDS011;8864;51.970;4.614;2023-06-05T10:58:12;2.47;;;1.60;;
17494;SDS011;8864;51.970;4.614;2023-06-05T11:03:55;2.28;;;1.50;;
17494;SDS011;8864;51.970;4.614;2023-06-05T11:06:23;4.65;;;1.40;;
17494;SDS011;8864;51.970;4.614;2023-06-05T11:14:26;7.40;;;1.80;;
17494;SDS011;8864;51.970;4.614;2023-06-05T11:17:28;5.55;;;1.48;;
17494;SDS011;8864;51.970;4.614;2023-06-05T11:19:56;7.38;;;1.90;;
17494;SDS011;8864;51.970;4.614;2023-06-05T11:22:23;6.35;;;1.73;;
17494;SDS011;8864;51.970;4.614;2023-06-05T11:27:55;5.03;;;1.73;;
17494;SDS011;8864;51.970;4.614;2023-06-05T11:30:26;1.70;;;1.38;;
17494;SDS011;8864;51.970;4.614;2023-06-05T11:32:57;5.57;;;1.60;;
17494;SDS011;8864;51.970;4.614;2023-06-05T11:35:33;4.30;;;1.60;;
17494;SDS011;8864;51.970;4.614;2023-06-05T11:38:07;2.75;;;1.50;;
17494;SDS011;8864;51.970;4.614;2023-06-05T11:40:35;4.28;;;2.00;;
17494;SDS011;8864;51.970;4.614;2023-06-05T11:43:02;5.32;;;1.70;;
17494;SDS011;8864;51.970;4.614;2023-06-05T11:45:31;3.25;;;1.63;;
17494;SDS011;8864;51.970;4.614;2023-06-05T11:48:06;3.08;;;1.50;;
17494;SDS011;8864;51.970;4.614;2023-06-05T11:50:33;2.58;;;1.52;;
17494;SDS011;8864;51.970;4.614;2023-06-05T11:53:04;3.42;;;1.63;;
17494;SDS011;8864;51.970;4.614;2023-06-05T11:55:31;3.63;;;1.50;;
17494;SDS011;8864;51.970;4.614;2023-06-05T11:58:08;7.25;;;1.67;;
17494;SDS011;8864;51.970;4.614;2023-06-05T12:00:37;5.60;;;1.70;;
17494;SDS011;8864;51.970;4.614;2023-06-05T12:03:04;3.42;;;1.50;;
17494;SDS011;8864;51.970;4.614;2023-06-05T12:05:33;4.18;;;1.40;;
17494;SDS011;8864;51.970;4.614;2023-06-05T12:10:51;3.17;;;1.63;;
17494;SDS011;8864;51.970;4.614;2023-06-05T12:13:18;3.08;;;1.58;;
17494;SDS011;8864;51.970;4.614;2023-06-05T12:15:56;3.13;;;1.60;;
17494;SDS011;8864;51.970;4.614;2023-06-05T12:18:30;4.30;;;1.67;;
17494;SDS011;8864;51.970;4.614;2023-06-05T12:20:58;5.03;;;1.48;;
17494;SDS011;8864;51.970;4.614;2023-06-05T12:23:25;2.45;;;1.70;;
17494;SDS011;8864;51.970;4.614;2023-06-05T12:25:58;5.10;;;2.20;;
17494;SDS011;8864;51.970;4.614;2023-06-05T12:28:26;3.80;;;1.70;;
17494;SDS011;8864;51.970;4.614;2023-06-05T12:30:53;2.22;;;1.55;;
17494;SDS011;8864;51.970;4.614;2023-06-05T12:33:21;4.45;;;1.70;;
17494;SDS011;8864;51.970;4.614;2023-06-05T12:36:01;3.25;;;1.80;;
17494;SDS011;8864;51.970;4.614;2023-06-05T12:38:29;3.05;;;1.40;;
17494;SDS011;8864;51.970;4.614;2023-06-05T12:40:56;6.20;;;1.73;;
17494;SDS011;8864;51.970;4.614;2023-06-05T12:43:24;6.60;;;1.67;;
17494;SDS011;8864;51.970;4.614;2023-06-05T12:45:51;10.70;;;2.17;;
17494;SDS011;8864;51.970;4.614;2023-06-05T12:48:19;5.40;;;1.90;;
17494;SDS011;8864;51.970;4.614;2023-06-05T12:50:49;4.93;;;1.90;;
17494;SDS011;8864;51.970;4.614;2023-06-05T12:53:16;2.00;;;1.60;;
17494;SDS011;8864;51.970;4.614;2023-06-05T12:55:43;4.65;;;1.50;;
17494;SDS011;8864;51.970;4.614;2023-06-05T12:58:10;4.28;;;1.90;;
17494;SDS011;8864;51.970;4.614;2023-06-05T13:00:37;1.80;;;1.58;;
17494;SDS011;8864;51.970;4.614;2023-06-05T13:03:04;3.13;;;1.50;;
17494;SDS011;8864;51.970;4.614;2023-06-05T13:05:31;2.78;;;1.60;;
17494;SDS011;8864;51.970;4.614;2023-06-05T13:08:00;2.08;;;1.42;;
17494;SDS011;8864;51.970;4.614;2023-06-05T13:10:28;5.88;;;1.75;;
17494;SDS011;8864;51.970;4.614;2023-06-05T13:12:55;2.65;;;1.60;;
17494;SDS011;8864;51.970;4.614;2023-06-05T13:15:21;2.45;;;1.63;;
17494;SDS011;8864;51.970;4.614;2023-06-05T13:17:48;4.50;;;1.60;;
17494;SDS011;8864;51.970;4.614;2023-06-05T13:20:15;1.92;;;1.20;;
17494;SDS011;8864;51.970;4.614;2023-06-05T13:22:42;3.17;;;1.50;;
17494;SDS011;8864;51.970;4.614;2023-06-05T13:25:11;3.05;;;1.58;;
17494;SDS011;8864;51.970;4.614;2023-06-05T13:27:38;2.22;;;1.40;;
17494;SDS011;8864;51.970;4.614;2023-06-05T13:30:06;1.77;;;1.33;;
17494;SDS011;8864;51.970;4.614;2023-06-05T13:32:34;3.45;;;1.50;;
17494;SDS011;8864;51.970;4.614;2023-06-05T13:35:02;3.58;;;1.40;;
17494;SDS011;8864;51.970;4.614;2023-06-05T13:37:29;3.72;;;1.35;;
17494;SDS011;8864;51.970;4.614;2023-06-05T13:39:57;6.00;;;1.60;;
17494;SDS011;8864;51.970;4.614;2023-06-05T13:42:25;2.80;;;1.30;;
17494;SDS011;8864;51.970;4.614;2023-06-05T13:44:52;3.03;;;1.50;;
17494;SDS011;8864;51.970;4.614;2023-06-05T13:47:19;4.63;;;1.50;;
17494;SDS011;8864;51.970;4.614;2023-06-05T13:49:46;2.90;;;1.30;;
17494;SDS011;8864;51.970;4.614;2023-06-05T13:52:13;2.20;;;1.38;;
17494;SDS011;8864;51.970;4.614;2023-06-05T13:54:40;2.53;;;1.52;;
17494;SDS011;8864;51.970;4.614;2023-06-05T13:57:08;3.15;;;1.40;;
17494;SDS011;8864;51.970;4.614;2023-06-05T13:59:38;1.98;;;1.38;;
17494;SDS011;8864;51.970;4.614;2023-06-05T14:02:06;1.90;;;1.35;;
17494;SDS011;8864;51.970;4.614;2023-06-05T14:04:33;2.38;;;1.40;;
17494;SDS011;8864;51.970;4.614;2023-06-05T14:06:59;4.07;;;1.40;;
17494;SDS011;8864;51.970;4.614;2023-06-05T14:09:27;2.13;;;1.40;;
17494;SDS011;8864;51.970;4.614;2023-06-05T14:11:54;2.47;;;1.40;;
17494;SDS011;8864;51.970;4.614;2023-06-05T14:14:22;1.92;;;1.45;;
17494;SDS011;8864;51.970;4.614;2023-06-05T14:16:50;3.88;;;1.55;;
17494;SDS011;8864;51.970;4.614;2023-06-05T14:19:18;2.55;;;1.40;;
17494;SDS011;8864;51.970;4.614;2023-06-05T14:21:44;4.55;;;1.50;;
17494;SDS011;8864;51.970;4.614;2023-06-05T14:24:11;2.63;;;1.40;;
17494;SDS011;8864;51.970;4.614;2023-06-05T14:26:39;4.32;;;1.25;;
17494;SDS011;8864;51.970;4.614;2023-06-05T14:29:06;4.82;;;1.52;;
17494;SDS011;8864;51.970;4.614;2023-06-05T14:31:33;8.10;;;1.60;;
17494;SDS011;8864;51.970;4.614;2023-06-05T14:34:01;3.60;;;1.40;;
17494;SDS011;8864;51.970;4.614;2023-06-05T14:36:28;2.50;;;1.50;;
17494;SDS011;8864;51.970;4.614;2023-06-05T14:38:55;2.67;;;1.50;;
17494;SDS011;8864;51.970;4.614;2023-06-05T14:41:22;2.92;;;1.40;;
17494;SDS011;8864;51.970;4.614;2023-06-05T14:43:49;3.30;;;1.33;;
17494;SDS011;8864;51.970;4.614;2023-06-05T14:46:17;2.00;;;1.33;;
17494;SDS011;8864;51.970;4.614;2023-06-05T14:48:44;4.47;;;1.70;;
17494;SDS011;8864;51.970;4.614;2023-06-05T14:51:12;1.85;;;1.42;;
17494;SDS011;8864;51.970;4.614;2023-06-05T14:53:39;2.42;;;1.40;;
17494;SDS011;8864;51.970;4.614;2023-06-05T14:56:06;2.97;;;1.50;;
17494;SDS011;8864;51.970;4.614;2023-06-05T14:58:34;2.97;;;1.80;;
17494;SDS011;8864;51.970;4.614;2023-06-05T15:01:00;3.92;;;1.80;;
17494;SDS011;8864;51.970;4.614;2023-06-05T15:03:27;3.58;;;1.65;;
17494;SDS011;8864;51.970;4.614;2023-06-05T15:05:54;2.30;;;1.35;;
17494;SDS011;8864;51.970;4.614;2023-06-05T15:08:22;5.53;;;1.90;;
17494;SDS011;8864;51.970;4.614;2023-06-05T15:10:49;2.83;;;1.73;;
17494;SDS011;8864;51.970;4.614;2023-06-05T15:13:16;3.83;;;2.00;;
17494;SDS011;8864;51.970;4.614;2023-06-05T15:15:45;3.45;;;1.63;;
17494;SDS011;8864;51.970;4.614;2023-06-05T15:18:12;2.03;;;1.55;;
17494;SDS011;8864;51.970;4.614;2023-06-05T15:20:39;3.90;;;1.50;;
17494;SDS011;8864;51.970;4.614;2023-06-05T15:23:06;2.92;;;1.77;;
17494;SDS011;8864;51.970;4.614;2023-06-05T15:25:34;2.13;;;1.50;;
17494;SDS011;8864;51.970;4.614;2023-06-05T15:28:01;3.33;;;1.52;;